Time;durP1;ratioP1;P1;durP2;ratioP2;P2;SDS_P1;SDS_P2;PMS_P1;PMS_P2;Temp;Humidity;BMP_temperature;BMP_pressure;BME280_temperature;BME280_humidity;BME280_pressure;Samples;Min_cycle;Max_cycle;Signal;HPM_P1;HPM_P2
2021/10/09 00:00:18;;;;;;;39.23;23.23;;;8.20;99.90;;;;;;5069866;28;20645;-68
2021/10/09 00:02:46;;;;;;;33.00;20.83;;;8.20;99.90;;;;;;5070138;28;20196;-68
2021/10/09 00:05:15;;;;;;;33.60;20.50;;;8.20;99.90;;;;;;5073059;28;20229;-68
2021/10/09 00:07:44;;;;;;;39.00;22.13;;;8.10;99.90;;;;;;5073075;28;20277;-67
2021/10/09 00:10:24;;;;;;;41.63;23.70;;;8.10;99.90;;;;;;5073605;28;20676;-68
2021/10/09 00:12:52;;;;;;;36.67;21.80;;;8.10;99.90;;;;;;5066631;28;20641;-68
2021/10/09 00:15:21;;;;;;;38.37;22.87;;;8.10;99.90;;;;;;5070273;28;20192;-68
2021/10/09 00:17:50;;;;;;;43.23;25.07;;;8.10;99.90;;;;;;5071966;28;20269;-68
2021/10/09 00:20:19;;;;;;;43.07;24.87;;;8.10;99.90;;;;;;5068840;28;20254;-68
2021/10/09 00:22:49;;;;;;;41.10;25.10;;;8.10;99.90;;;;;;5073697;28;20206;-68
2021/10/09 00:25:17;;;;;;;51.67;27.93;;;8.10;99.90;;;;;;5072838;28;20269;-68
2021/10/09 00:27:45;;;;;;;39.20;23.97;;;8.10;99.90;;;;;;5050591;28;20318;-68
2021/10/09 00:30:14;;;;;;;44.60;25.13;;;8.10;99.90;;;;;;5073627;28;20200;-68
2021/10/09 00:32:42;;;;;;;47.73;27.20;;;8.00;99.90;;;;;;5064561;28;20599;-68
2021/10/09 00:35:11;;;;;;;54.40;28.60;;;8.00;99.90;;;;;;5068337;28;20218;-68
2021/10/09 00:37:39;;;;;;;52.13;28.97;;;8.00;99.90;;;;;;5068864;28;20670;-68
2021/10/09 00:40:11;;;;;;;54.70;29.00;;;8.00;99.90;;;;;;5070512;28;20693;-68
2021/10/09 00:42:39;;;;;;;53.37;28.23;;;8.00;99.90;;;;;;5070893;28;20192;-69
2021/10/09 00:45:09;;;;;;;47.97;27.03;;;8.00;99.90;;;;;;5066757;28;20270;-68
2021/10/09 00:47:37;;;;;;;48.90;26.40;;;8.00;99.90;;;;;;5073107;28;20219;-68
2021/10/09 00:50:06;;;;;;;48.43;27.10;;;8.00;99.90;;;;;;5076247;28;20739;-68
2021/10/09 00:52:36;;;;;;;41.57;26.00;;;7.90;99.90;;;;;;5069940;28;20226;-68
2021/10/09 00:55:06;;;;;;;43.57;25.80;;;7.90;99.90;;;;;;5069134;28;20196;-68
2021/10/09 00:57:39;;;;;;;36.70;22.80;;;7.90;99.90;;;;;;5069381;28;20195;-68
2021/10/09 01:00:09;;;;;;;43.17;25.17;;;7.80;99.90;;;;;;5054744;28;20705;-68
2021/10/09 01:02:38;;;;;;;45.57;25.53;;;7.80;99.90;;;;;;5071598;28;20578;-68
2021/10/09 01:05:09;;;;;;;42.23;25.33;;;7.80;99.90;;;;;;5074733;28;20514;-68
2021/10/09 01:07:37;;;;;;;46.07;26.27;;;7.80;99.90;;;;;;5073633;28;20632;-68
2021/10/09 01:10:07;;;;;;;40.17;25.17;;;7.80;99.90;;;;;;5073783;28;20757;-68
2021/10/09 01:12:37;;;;;;;46.13;25.50;;;7.80;99.90;;;;;;5079838;28;20217;-68
2021/10/09 01:15:19;;;;;;;42.97;25.63;;;7.80;99.90;;;;;;5074265;28;20417;-68
2021/10/09 01:17:48;;;;;;;42.83;24.37;;;7.70;99.90;;;;;;5073975;28;20255;-68
2021/10/09 01:20:18;;;;;;;40.40;26.13;;;7.70;99.90;;;;;;5077124;28;20226;-68
2021/10/09 01:22:47;;;;;;;37.77;23.73;;;7.70;99.90;;;;;;5076624;28;20275;-67
2021/10/09 01:25:15;;;;;;;54.47;31.00;;;7.60;99.90;;;;;;5079515;28;20279;-68
2021/10/09 01:27:45;;;;;;;61.20;33.83;;;7.60;99.90;;;;;;5079045;28;20286;-68
2021/10/09 01:30:13;;;;;;;65.97;36.40;;;7.60;99.90;;;;;;5077301;28;20208;-68
2021/10/09 01:32:42;;;;;;;70.03;37.60;;;7.60;99.90;;;;;;5074818;28;20220;-68
2021/10/09 01:35:11;;;;;;;74.50;40.63;;;7.60;99.90;;;;;;5074905;28;20223;-68
2021/10/09 01:37:42;;;;;;;85.70;46.07;;;7.60;99.90;;;;;;5072553;28;20188;-68
2021/10/09 01:40:11;;;;;;;88.13;45.97;;;7.60;99.90;;;;;;5069980;28;20787;-68
2021/10/09 01:42:40;;;;;;;85.87;45.37;;;7.60;99.90;;;;;;5071990;28;20196;-68
2021/10/09 01:45:09;;;;;;;80.83;42.60;;;7.60;99.90;;;;;;5069381;28;20187;-68
2021/10/09 01:47:40;;;;;;;78.13;43.50;;;7.60;99.90;;;;;;5073566;28;20630;-68
2021/10/09 01:50:09;;;;;;;70.77;41.33;;;7.60;99.90;;;;;;5074796;28;20224;-68
2021/10/09 01:52:37;;;;;;;71.63;38.30;;;7.60;99.90;;;;;;5076338;28;20196;-68
2021/10/09 01:55:08;;;;;;;71.30;38.93;;;7.60;99.90;;;;;;5076389;28;20554;-69
2021/10/09 01:57:37;;;;;;;68.97;38.47;;;7.60;99.90;;;;;;5066331;28;20206;-68
2021/10/09 02:00:06;;;;;;;64.30;37.63;;;7.60;99.90;;;;;;5068404;28;20216;-68
2021/10/09 02:02:35;;;;;;;70.97;40.53;;;7.60;99.90;;;;;;5070488;28;20272;-69
2021/10/09 02:05:04;;;;;;;68.40;38.53;;;7.60;99.90;;;;;;5077485;28;20211;-68
2021/10/09 02:07:34;;;;;;;63.80;36.17;;;7.60;99.90;;;;;;5078575;28;20193;-68
2021/10/09 02:10:03;;;;;;;63.87;36.10;;;7.60;99.90;;;;;;5075243;28;20243;-68
2021/10/09 02:12:34;;;;;;;59.40;33.37;;;7.50;99.90;;;;;;5079685;28;20228;-68
2021/10/09 02:15:10;;;;;;;63.60;35.50;;;7.50;99.90;;;;;;5074976;28;20208;-69
2021/10/09 02:18:18;;;;;;;56.83;32.93;;;7.50;99.90;;;;;;5077237;28;20255;-68
2021/10/09 02:26:17;;;;;;;61.50;34.93;;;7.40;99.90;;;;;;5079126;28;20937;-68
2021/10/09 02:28:47;;;;;;;62.00;34.87;;;7.40;99.90;;;;;;5078323;28;20219;-68
2021/10/09 02:31:15;;;;;;;67.47;38.23;;;7.40;99.90;;;;;;5071699;28;20302;-68
2021/10/09 02:33:44;;;;;;;67.13;38.43;;;7.40;99.90;;;;;;5071215;28;20208;-68
2021/10/09 02:36:12;;;;;;;66.93;36.20;;;7.40;99.90;;;;;;5069905;28;20246;-68
2021/10/09 02:38:41;;;;;;;60.20;35.00;;;7.40;99.90;;;;;;5065341;28;20278;-68
2021/10/09 02:41:09;;;;;;;57.40;33.57;;;7.30;99.90;;;;;;5074540;28;20658;-69
2021/10/09 02:43:38;;;;;;;54.27;31.87;;;7.30;99.90;;;;;;5069427;28;20287;-68
2021/10/09 02:46:08;;;;;;;59.87;34.50;;;7.30;99.90;;;;;;5071750;28;20219;-68
2021/10/09 02:48:37;;;;;;;58.50;32.83;;;7.20;99.90;;;;;;5073553;28;20211;-69
2021/10/09 02:51:06;;;;;;;53.07;30.57;;;7.20;99.90;;;;;;5071294;28;20247;-69
2021/10/09 02:53:34;;;;;;;54.07;31.27;;;7.20;99.90;;;;;;5072616;28;20201;-69
2021/10/09 02:56:03;;;;;;;52.80;30.20;;;7.20;99.90;;;;;;5071924;28;20188;-67
2021/10/09 02:58:31;;;;;;;53.43;30.27;;;7.20;99.90;;;;;;5070132;28;20288;-68
2021/10/09 03:01:00;;;;;;;53.97;30.00;;;7.20;99.90;;;;;;5073513;28;20572;-68
2021/10/09 03:03:31;;;;;;;49.30;29.17;;;7.20;99.90;;;;;;5070626;28;20211;-68
2021/10/09 03:06:00;;;;;;;50.57;29.67;;;7.10;99.90;;;;;;5074135;28;20195;-68
2021/10/09 03:08:29;;;;;;;58.10;31.83;;;7.10;99.90;;;;;;5073094;28;20199;-68
2021/10/09 03:10:59;;;;;;;60.70;32.63;;;7.10;99.90;;;;;;5067960;28;20725;-68
2021/10/09 03:13:34;;;;;;;61.07;33.17;;;7.10;99.90;;;;;;5057859;28;20199;-68
2021/10/09 03:16:30;;;;;;;61.63;32.90;;;7.10;99.90;;;;;;5068154;28;20189;-68
2021/10/09 03:19:48;;;;;;;59.33;32.47;;;7.10;99.90;;;;;;5071484;28;20680;-68
2021/10/09 03:22:17;;;;;;;62.87;33.93;;;7.10;99.90;;;;;;5076562;28;20202;-68
2021/10/09 03:24:46;;;;;;;71.30;37.63;;;7.10;99.90;;;;;;5071230;28;20200;-68
2021/10/09 03:27:14;;;;;;;72.00;38.70;;;7.00;99.90;;;;;;5070899;28;20196;-68
2021/10/09 03:29:42;;;;;;;68.57;36.90;;;7.10;99.90;;;;;;5069652;28;20207;-69
2021/10/09 03:32:11;;;;;;;74.00;37.87;;;7.10;99.90;;;;;;5074437;28;20222;-68
2021/10/09 03:34:39;;;;;;;64.57;35.47;;;7.10;99.90;;;;;;5073968;28;20191;-68
2021/10/09 03:37:10;;;;;;;71.30;38.00;;;7.10;99.90;;;;;;5075623;28;20191;-68
2021/10/09 03:39:42;;;;;;;64.47;36.53;;;7.00;99.90;;;;;;5068451;28;20283;-69
2021/10/09 03:42:13;;;;;;;66.20;38.13;;;7.00;99.90;;;;;;5067371;28;20295;-68
2021/10/09 03:44:46;;;;;;;70.87;39.30;;;7.10;99.90;;;;;;5073757;28;20215;-68
2021/10/09 03:47:20;;;;;;;63.00;35.17;;;7.10;99.90;;;;;;5072220;28;20223;-68
2021/10/09 03:49:52;;;;;;;70.73;36.00;;;7.10;99.90;;;;;;5063502;28;20286;-68
2021/10/09 03:52:34;;;;;;;101.53;41.37;;;7.00;99.90;;;;;;5074488;28;20192;-68
2021/10/09 03:55:05;;;;;;;159.53;42.63;;;7.00;99.90;;;;;;5070716;28;20202;-68
2021/10/09 03:57:33;;;;;;;97.73;41.43;;;7.00;99.90;;;;;;5069589;28;20187;-69
2021/10/09 04:00:02;;;;;;;87.57;39.13;;;7.00;99.90;;;;;;5066801;28;20558;-68
2021/10/09 04:02:31;;;;;;;172.03;39.07;;;7.10;99.90;;;;;;5066607;28;20678;-69
2021/10/09 04:04:59;;;;;;;94.77;39.73;;;7.10;99.90;;;;;;5065797;28;20191;-67
2021/10/09 04:07:29;;;;;;;85.73;39.17;;;7.10;99.90;;;;;;5075734;28;20246;-68
2021/10/09 04:09:58;;;;;;;67.40;37.17;;;7.10;99.90;;;;;;5069414;28;20291;-68
2021/10/09 04:12:26;;;;;;;88.00;43.23;;;7.10;99.90;;;;;;5074950;28;20196;-68
2021/10/09 04:14:54;;;;;;;93.87;42.70;;;7.10;99.90;;;;;;5071297;28;20202;-68
2021/10/09 04:17:23;;;;;;;94.17;40.27;;;7.10;99.90;;;;;;5055975;28;20694;-68
2021/10/09 04:19:52;;;;;;;82.97;40.10;;;7.20;99.90;;;;;;5070686;28;20196;-68
2021/10/09 04:22:21;;;;;;;81.83;40.03;;;7.20;99.90;;;;;;5074723;28;20237;-69
2021/10/09 04:24:55;;;;;;;110.83;45.40;;;7.20;99.90;;;;;;5054004;28;20195;-69
2021/10/09 04:27:24;;;;;;;112.70;42.97;;;7.30;99.90;;;;;;5074226;28;20203;-69
2021/10/09 04:29:53;;;;;;;83.73;41.07;;;7.30;99.90;;;;;;5058280;28;20195;-69
2021/10/09 04:32:22;;;;;;;95.93;45.07;;;7.40;99.90;;;;;;5067781;28;20249;-68
2021/10/09 04:35:07;;;;;;;96.07;45.10;;;7.40;99.90;;;;;;5056744;28;20195;-69
2021/10/09 04:37:36;;;;;;;138.17;46.37;;;7.50;99.90;;;;;;5073846;28;20192;-68
2021/10/09 04:40:07;;;;;;;126.23;47.37;;;7.60;99.90;;;;;;5070850;28;20187;-69
2021/10/09 04:42:36;;;;;;;109.97;45.90;;;7.70;99.90;;;;;;5062706;28;20256;-68
2021/10/09 04:45:05;;;;;;;128.10;46.60;;;7.70;99.90;;;;;;5071784;28;20192;-68
2021/10/09 04:47:35;;;;;;;131.17;46.73;;;7.80;99.90;;;;;;5044249;28;20188;-68
2021/10/09 04:50:05;;;;;;;208.03;47.33;;;7.80;99.90;;;;;;5068283;28;20565;-68
2021/10/09 04:52:35;;;;;;;121.57;45.50;;;7.80;99.90;;;;;;5064675;28;20214;-68
2021/10/09 04:55:06;;;;;;;207.70;47.60;;;7.90;99.90;;;;;;5067245;28;20288;-68
2021/10/09 04:57:45;;;;;;;228.10;47.33;;;7.90;99.90;;;;;;5048016;28;20697;-68
2021/10/09 05:00:14;;;;;;;300.63;50.83;;;8.00;99.90;;;;;;5063045;28;20222;-68
2021/10/09 05:02:43;;;;;;;195.60;47.50;;;8.00;99.90;;;;;;5063051;28;20192;-67
2021/10/09 05:05:12;;;;;;;171.27;48.13;;;8.00;99.90;;;;;;5070503;28;20542;-69
2021/10/09 05:07:40;;;;;;;350.07;52.50;;;8.00;99.90;;;;;;5073229;28;20212;-68
2021/10/09 05:10:11;;;;;;;373.53;54.67;;;8.00;99.90;;;;;;5074169;28;20192;-68
2021/10/09 05:12:59;;;;;;;171.83;48.03;;;8.00;99.90;;;;;;5089749;28;20191;-68
2021/10/09 05:15:29;;;;;;;147.50;46.90;;;8.10;99.90;;;;;;5071099;28;20208;-69
2021/10/09 05:18:03;;;;;;;183.30;48.70;;;8.10;99.90;;;;;;5066174;28;20234;-68
2021/10/09 05:21:13;;;;;;;128.07;49.10;;;8.10;99.90;;;;;;5066867;28;20723;-68
2021/10/09 05:24:23;;;;;;;123.83;47.87;;;8.10;99.90;;;;;;5067961;28;20200;-68
2021/10/09 05:27:07;;;;;;;241.47;53.50;;;8.10;99.90;;;;;;5057347;28;20195;-68
2021/10/09 05:29:36;;;;;;;214.20;53.00;;;8.20;99.90;;;;;;5070135;28;20196;-68
2021/10/09 05:32:06;;;;;;;242.90;53.87;;;8.20;99.90;;;;;;5066892;28;20212;-68
2021/10/09 05:34:37;;;;;;;204.70;54.80;;;8.20;99.90;;;;;;5066719;28;20589;-68
2021/10/09 05:37:09;;;;;;;294.90;57.70;;;8.20;99.90;;;;;;5072439;28;20666;-68
2021/10/09 05:39:38;;;;;;;197.43;56.87;;;8.20;99.90;;;;;;5067128;28;20195;-68
2021/10/09 05:42:08;;;;;;;174.97;54.57;;;8.30;99.90;;;;;;5069265;28;20282;-68
2021/10/09 05:44:38;;;;;;;168.57;54.63;;;8.30;99.90;;;;;;5071423;28;20200;-68
2021/10/09 05:47:07;;;;;;;254.43;57.73;;;8.30;99.90;;;;;;5068227;28;20700;-68
2021/10/09 05:49:38;;;;;;;193.57;56.30;;;8.30;99.90;;;;;;5079116;28;20642;-68
2021/10/09 05:52:11;;;;;;;219.90;56.77;;;8.30;99.90;;;;;;5066673;28;20268;-68
2021/10/09 05:54:43;;;;;;;188.90;56.63;;;8.30;99.90;;;;;;5066857;28;20191;-68
2021/10/09 05:57:26;;;;;;;250.00;58.37;;;8.30;99.90;;;;;;5075067;28;20196;-68
2021/10/09 06:00:17;;;;;;;182.53;57.03;;;8.30;99.90;;;;;;5051286;28;20223;-68
2021/10/09 06:48:15;;;;;;;206.13;61.40;;;8.70;99.90;;;;;;5061492;28;20637;-68
2021/10/09 07:01:49;;;;;;;164.90;59.23;;;8.90;99.90;;;;;;5043855;28;20234;-69
2021/10/09 07:04:19;;;;;;;155.37;56.80;;;9.00;99.90;;;;;;5037883;28;20547;-69
2021/10/09 07:06:49;;;;;;;146.47;55.43;;;9.00;99.90;;;;;;5039312;28;20225;-69
2021/10/09 07:09:17;;;;;;;125.03;53.97;;;9.00;99.90;;;;;;5040293;28;20726;-68
2021/10/09 07:11:45;;;;;;;129.00;52.90;;;9.00;99.90;;;;;;5035658;28;20909;-69
2021/10/09 07:14:14;;;;;;;127.87;52.23;;;9.10;99.90;;;;;;5034527;28;20197;-67
2021/10/09 07:16:42;;;;;;;141.33;56.23;;;9.10;99.90;;;;;;5043618;28;20192;-69
2021/10/09 07:19:10;;;;;;;161.80;54.50;;;9.10;99.90;;;;;;5040527;28;20615;-69
2021/10/09 07:21:42;;;;;;;131.20;53.93;;;9.10;99.90;;;;;;5035720;28;20659;-69
2021/10/09 07:24:30;;;;;;;142.60;54.00;;;9.10;99.90;;;;;;5069016;28;20723;-69
2021/10/09 07:26:59;;;;;;;133.33;54.40;;;9.20;99.90;;;;;;5037426;28;20213;-69
2021/10/09 07:29:27;;;;;;;166.10;56.23;;;9.30;99.90;;;;;;5034419;28;20189;-68
2021/10/09 07:31:56;;;;;;;209.17;57.53;;;9.30;99.90;;;;;;5037286;28;21003;-69
2021/10/09 07:34:24;;;;;;;144.00;52.63;;;9.30;99.90;;;;;;5056062;28;20197;-69
2021/10/09 07:36:54;;;;;;;158.27;55.57;;;9.30;99.90;;;;;;5043841;28;20196;-69
2021/10/09 07:39:22;;;;;;;152.20;55.17;;;9.30;99.90;;;;;;5044416;28;20416;-69
2021/10/09 07:41:52;;;;;;;145.07;56.83;;;9.30;99.90;;;;;;5049645;28;20741;-70
2021/10/09 07:44:21;;;;;;;140.97;57.17;;;9.40;99.90;;;;;;5065738;28;20197;-68
2021/10/09 07:46:50;;;;;;;135.63;56.20;;;9.90;99.90;;;;;;5037195;28;20287;-68
2021/10/09 07:49:19;;;;;;;137.37;52.67;;;9.90;99.90;;;;;;5036931;28;20255;-69
2021/10/09 07:51:48;;;;;;;115.57;51.33;;;9.80;99.90;;;;;;5036816;28;20663;-69
2021/10/09 07:54:18;;;;;;;119.20;50.83;;;9.80;99.90;;;;;;5031892;28;20208;-67
2021/10/09 07:56:46;;;;;;;111.97;50.03;;;9.70;99.90;;;;;;5031370;28;20208;-66
2021/10/09 07:59:14;;;;;;;105.70;48.23;;;9.70;99.90;;;;;;5022434;28;20229;-66
2021/10/09 08:01:43;;;;;;;104.10;48.73;;;9.60;99.90;;;;;;5022738;28;20255;-66
2021/10/09 08:04:15;;;;;;;132.93;52.43;;;9.60;99.90;;;;;;5022591;28;20198;-66
2021/10/09 08:06:43;;;;;;;112.10;52.00;;;9.70;99.90;;;;;;5021705;28;20233;-66
2021/10/09 08:09:12;;;;;;;103.23;48.23;;;9.80;99.90;;;;;;5023600;28;20201;-67
2021/10/09 08:11:42;;;;;;;95.13;47.27;;;9.90;99.90;;;;;;5024677;28;20197;-66
2021/10/09 08:14:11;;;;;;;94.40;46.00;;;9.80;99.90;;;;;;5026171;28;20752;-66
2021/10/09 08:16:43;;;;;;;101.17;49.83;;;9.80;99.90;;;;;;5024687;28;20239;-66
2021/10/09 08:19:12;;;;;;;104.97;50.40;;;9.80;99.90;;;;;;5025338;28;20197;-66
2021/10/09 08:21:42;;;;;;;103.17;50.37;;;9.80;99.90;;;;;;5024793;28;20272;-66
2021/10/09 08:24:17;;;;;;;104.63;49.70;;;9.80;99.90;;;;;;5022046;28;20205;-66
2021/10/09 08:26:58;;;;;;;103.70;49.47;;;9.90;99.90;;;;;;5023976;28;20252;-66
2021/10/09 08:40:30;;;;;;;87.27;47.00;;;10.30;99.90;;;;;;5026749;28;20289;-67
2021/10/09 08:43:00;;;;;;;81.33;44.50;;;10.30;99.90;;;;;;5028434;28;20198;-67
2021/10/09 08:45:28;;;;;;;87.67;46.20;;;10.30;99.90;;;;;;5034602;28;20221;-67
2021/10/09 08:47:57;;;;;;;83.73;45.50;;;10.30;99.90;;;;;;5030686;28;20793;-67
2021/10/09 08:50:26;;;;;;;79.27;43.23;;;10.30;99.90;;;;;;5031310;28;20185;-69
2021/10/09 08:53:00;;;;;;;72.30;41.57;;;10.40;99.90;;;;;;5062158;28;20748;-67
2021/10/09 08:55:31;;;;;;;92.33;49.80;;;10.50;99.90;;;;;;5036052;28;20205;-66
2021/10/09 08:58:04;;;;;;;75.13;43.97;;;11.00;99.90;;;;;;5061076;28;20278;-67
2021/10/09 09:00:42;;;;;;;57.63;35.60;;;11.50;99.90;;;;;;5030095;28;20227;-67
2021/10/09 09:03:13;;;;;;;52.97;32.90;;;11.80;99.90;;;;;;5025718;28;20182;-67
2021/10/09 09:05:57;;;;;;;50.00;33.07;;;12.00;99.90;;;;;;5037790;28;20355;-67
2021/10/09 09:08:53;;;;;;;46.80;30.47;;;12.10;99.90;;;;;;5030442;28;20263;-67
2021/10/09 09:26:01;;;;;;;49.83;30.97;;;12.70;99.90;;;;;;5022655;28;20648;-67
2021/10/09 09:31:37;;;;;;;45.40;29.00;;;13.10;99.90;;;;;;5024573;28;20190;-68
2021/10/09 09:34:17;;;;;;;44.07;28.83;;;13.30;99.90;;;;;;5024941;28;20232;-67
2021/10/09 09:37:05;;;;;;;41.40;28.70;;;13.50;99.90;;;;;;5020338;28;20579;-66
2021/10/09 09:39:38;;;;;;;38.80;27.63;;;13.60;99.90;;;;;;5022003;28;20511;-68
2021/10/09 09:42:08;;;;;;;42.00;27.57;;;13.80;99.90;;;;;;5023293;28;20637;-68
2021/10/09 09:44:39;;;;;;;38.17;26.57;;;13.90;99.90;;;;;;5019562;28;20275;-67
2021/10/09 09:47:10;;;;;;;41.90;27.23;;;14.00;99.90;;;;;;5020492;28;20272;-67
2021/10/09 09:49:56;;;;;;;39.70;26.67;;;14.10;99.90;;;;;;5034199;28;20205;-67
2021/10/09 09:52:25;;;;;;;39.00;26.53;;;14.30;99.90;;;;;;5019304;28;20280;-67
2021/10/09 09:54:56;;;;;;;40.37;26.67;;;14.40;99.90;;;;;;5024054;28;20284;-67
2021/10/09 09:57:28;;;;;;;41.23;27.27;;;14.60;99.90;;;;;;5024929;28;20195;-68
2021/10/09 09:59:58;;;;;;;34.73;25.20;;;14.80;99.90;;;;;;5021952;28;20684;-67
2021/10/09 10:02:30;;;;;;;40.97;25.23;;;15.00;99.90;;;;;;5022590;28;20219;-68
2021/10/09 10:05:02;;;;;;;36.53;23.73;;;15.20;99.90;;;;;;5023783;28;20290;-68
2021/10/09 10:07:30;;;;;;;33.60;23.83;;;15.20;99.90;;;;;;5023689;28;20739;-68
2021/10/09 10:09:58;;;;;;;38.20;25.50;;;15.50;99.90;;;;;;5021819;28;20203;-68
2021/10/09 10:12:29;;;;;;;38.17;25.40;;;15.60;99.90;;;;;;5021637;28;20204;-68
2021/10/09 10:14:58;;;;;;;37.13;25.33;;;15.70;99.90;;;;;;5020820;28;20198;-67
2021/10/09 10:17:42;;;;;;;33.60;23.57;;;15.80;99.90;;;;;;5021721;28;20293;-67
2021/10/09 10:20:12;;;;;;;36.10;24.13;;;15.90;99.90;;;;;;5020484;28;20705;-68
2021/10/09 10:22:58;;;;;;;37.13;24.47;;;16.10;99.90;;;;;;5021770;28;20239;-68
2021/10/09 10:25:33;;;;;;;35.13;24.33;;;16.40;99.90;;;;;;5021519;28;21599;-68
2021/10/09 10:28:02;;;;;;;39.37;24.03;;;16.50;99.90;;;;;;5023175;28;20245;-67
2021/10/09 10:30:33;;;;;;;37.70;24.40;;;16.50;99.90;;;;;;5024869;28;20248;-68
2021/10/09 10:33:44;;;;;;;34.27;23.43;;;16.60;99.90;;;;;;5025445;28;20688;-67
2021/10/09 10:36:33;;;;;;;32.87;22.77;;;16.90;99.90;;;;;;5027886;28;20606;-67
2021/10/09 10:39:02;;;;;;;35.93;22.63;;;17.00;99.90;;;;;;5023873;28;20221;-66
2021/10/09 10:41:46;;;;;;;34.03;21.97;;;17.20;99.90;;;;;;5029135;28;20225;-68
2021/10/09 10:45:00;;;;;;;33.50;21.80;;;17.60;99.90;;;;;;5030723;28;20271;-68
2021/10/09 10:47:49;;;;;;;31.33;22.07;;;17.70;99.90;;;;;;5026884;28;20725;-68
2021/10/09 10:54:11;;;;;;;35.13;23.40;;;18.20;99.90;;;;;;5028746;28;20234;-68
2021/10/09 10:57:18;;;;;;;34.20;22.17;;;18.30;99.90;;;;;;5009165;28;20201;-68
2021/10/09 10:59:59;;;;;;;28.63;20.63;;;18.50;99.90;;;;;;5031146;28;20721;-68
2021/10/09 11:02:31;;;;;;;30.80;20.67;;;18.70;99.90;;;;;;5034714;28;20272;-68
2021/10/09 11:05:02;;;;;;;29.10;21.70;;;19.00;99.90;;;;;;5029941;28;20187;-68
2021/10/09 11:07:34;;;;;;;31.50;21.30;;;19.10;99.90;;;;;;5026776;28;20222;-68
2021/10/09 11:10:05;;;;;;;31.80;20.23;;;19.10;99.90;;;;;;5022749;28;20215;-68
2021/10/09 11:12:35;;;;;;;34.90;21.53;;;19.50;99.90;;;;;;5028454;28;20931;-68
2021/10/09 11:15:17;;;;;;;33.57;20.23;;;19.70;99.90;;;;;;5027929;28;20249;-66
2021/10/09 11:17:47;;;;;;;27.37;20.30;;;19.50;99.90;;;;;;5027612;28;20569;-68
2021/10/09 11:20:22;;;;;;;26.83;20.57;;;19.60;99.90;;;;;;5029163;28;20227;-70
2021/10/09 11:22:53;;;;;;;34.77;21.70;;;19.60;99.90;;;;;;5027136;28;20245;-67
2021/10/09 11:25:28;;;;;;;29.83;21.07;;;19.80;99.90;;;;;;5025846;28;20446;-67
2021/10/09 11:27:58;;;;;;;30.50;21.03;;;19.80;99.90;;;;;;5025409;28;20221;-67
2021/10/09 11:30:27;;;;;;;32.70;20.93;;;20.10;99.90;;;;;;5027722;28;20547;-67
2021/10/09 11:32:57;;;;;;;31.10;21.60;;;20.40;99.90;;;;;;5023738;28;20745;-67
2021/10/09 11:35:34;;;;;;;30.40;21.80;;;20.10;99.90;;;;;;5029878;28;20253;-67
2021/10/09 11:38:06;;;;;;;34.83;21.33;;;19.70;99.90;;;;;;5032977;28;20679;-67
2021/10/09 11:40:42;;;;;;;30.03;21.20;;;19.60;99.90;;;;;;5027121;28;20199;-67
2021/10/09 11:43:20;;;;;;;29.67;21.57;;;19.90;99.90;;;;;;5037648;28;20220;-68
2021/10/09 11:45:56;;;;;;;35.03;21.97;;;19.70;99.90;;;;;;5032719;28;20205;-68
2021/10/09 11:54:30;;;;;;;30.20;22.03;;;19.80;99.90;;;;;;5025926;28;20259;-68
2021/10/09 11:56:58;;;;;;;31.53;22.33;;;19.80;99.90;;;;;;5033784;28;20246;-68
2021/10/09 11:59:38;;;;;;;30.43;20.83;;;19.60;99.90;;;;;;5038501;28;20244;-68
2021/10/09 12:02:08;;;;;;;33.00;21.00;;;19.80;99.90;;;;;;5057597;28;20216;-68
2021/10/09 12:04:38;;;;;;;29.40;20.13;;;19.70;99.90;;;;;;5034705;28;20456;-68
2021/10/09 12:07:10;;;;;;;30.43;19.27;;;19.80;99.90;;;;;;5037115;28;20683;-67
2021/10/09 12:09:42;;;;;;;28.27;20.30;;;19.90;99.90;;;;;;5041147;28;20273;-68
2021/10/09 12:12:17;;;;;;;29.10;20.50;;;20.10;99.90;;;;;;5040149;28;20628;-68
2021/10/09 12:14:46;;;;;;;32.53;20.93;;;20.40;99.90;;;;;;5043066;28;20251;-68
2021/10/09 12:17:14;;;;;;;29.00;19.70;;;20.20;99.90;;;;;;5035121;28;20225;-68
2021/10/09 12:19:43;;;;;;;31.30;19.23;;;20.10;99.90;;;;;;5032060;28;20243;-68
2021/10/09 12:22:14;;;;;;;32.73;19.80;;;20.30;99.90;;;;;;5032713;28;20288;-68
2021/10/09 12:24:48;;;;;;;31.53;19.93;;;20.30;99.90;;;;;;5036080;28;20200;-68
2021/10/09 12:27:19;;;;;;;28.30;19.23;;;20.30;99.90;;;;;;5034528;28;20691;-68
2021/10/09 12:29:58;;;;;;;28.30;19.40;;;20.30;99.90;;;;;;5025710;28;20309;-68
2021/10/09 12:32:28;;;;;;;34.70;19.47;;;20.00;99.90;;;;;;5040963;28;20220;-68
2021/10/09 12:35:06;;;;;;;28.83;20.57;;;19.80;99.90;;;;;;5036124;28;20216;-68
2021/10/09 12:37:36;;;;;;;31.50;20.70;;;19.60;99.90;;;;;;5033472;28;20225;-68
2021/10/09 12:40:12;;;;;;;29.33;20.30;;;19.50;99.90;;;;;;5040405;28;20213;-68
2021/10/09 12:42:45;;;;;;;36.00;19.43;;;19.70;99.90;;;;;;5033795;28;20648;-68
2021/10/09 12:45:13;;;;;;;32.03;19.43;;;19.60;99.90;;;;;;5034405;28;20621;-68
2021/10/09 12:47:54;;;;;;;32.90;20.57;;;19.80;99.90;;;;;;5033097;28;20264;-68
2021/10/09 12:50:23;;;;;;;32.00;20.47;;;19.60;99.90;;;;;;5033324;28;20620;-68
2021/10/09 12:52:53;;;;;;;27.93;18.43;;;19.60;99.90;;;;;;5037019;28;20225;-68
2021/10/09 12:55:26;;;;;;;29.10;17.80;;;19.50;99.90;;;;;;5026399;28;20205;-68
2021/10/09 12:57:56;;;;;;;27.90;18.73;;;19.70;99.90;;;;;;5034014;28;20209;-68
2021/10/09 13:00:27;;;;;;;27.50;18.13;;;19.60;99.90;;;;;;5035538;28;20652;-68
2021/10/09 13:02:57;;;;;;;25.33;16.20;;;19.60;99.90;;;;;;5040684;28;20185;-68
2021/10/09 13:05:29;;;;;;;22.77;16.97;;;19.50;99.90;;;;;;5039739;28;20199;-68
2021/10/09 13:07:59;;;;;;;26.13;16.73;;;19.40;99.90;;;;;;5027255;28;20251;-68
2021/10/09 13:10:33;;;;;;;23.53;15.77;;;19.40;99.90;;;;;;5031083;28;20201;-68
2021/10/09 13:13:02;;;;;;;26.23;16.33;;;19.40;99.90;;;;;;5035903;28;20553;-68
2021/10/09 13:15:30;;;;;;;30.23;16.93;;;19.40;99.90;;;;;;5038079;28;20200;-68
2021/10/09 13:17:59;;;;;;;26.87;16.30;;;19.50;99.90;;;;;;5049704;28;20521;-68
2021/10/09 13:20:32;;;;;;;23.60;16.20;;;19.60;99.90;;;;;;5029184;28;20223;-68
2021/10/09 13:23:03;;;;;;;23.13;14.97;;;19.60;99.90;;;;;;5040198;28;20197;-68
2021/10/09 13:25:40;;;;;;;22.80;15.13;;;19.80;99.90;;;;;;5024427;28;20192;-68
2021/10/09 13:28:09;;;;;;;23.93;15.23;;;19.80;99.90;;;;;;5033102;28;20609;-67
2021/10/09 13:30:38;;;;;;;29.33;15.43;;;19.70;99.90;;;;;;5029137;28;20300;-68
2021/10/09 13:33:06;;;;;;;23.90;14.67;;;19.50;99.90;;;;;;5036982;28;20279;-68
2021/10/09 13:35:36;;;;;;;24.47;13.70;;;19.50;99.90;;;;;;5034210;28;20195;-69
2021/10/09 13:38:08;;;;;;;19.53;14.67;;;19.60;99.90;;;;;;5039951;28;20197;-69
2021/10/09 13:40:38;;;;;;;21.03;14.17;;;19.60;99.90;;;;;;5030087;28;20597;-68
2021/10/09 13:43:11;;;;;;;17.87;12.87;;;19.60;99.90;;;;;;5036485;28;20243;-68
2021/10/09 13:45:43;;;;;;;27.40;15.97;;;19.60;99.90;;;;;;5036694;28;20184;-67
2021/10/09 13:48:12;;;;;;;21.97;14.50;;;19.70;99.90;;;;;;5038949;28;20207;-68
2021/10/09 13:50:44;;;;;;;24.37;15.17;;;19.70;99.90;;;;;;5032434;28;20209;-68
2021/10/09 13:53:12;;;;;;;21.30;13.57;;;19.70;99.90;;;;;;5027686;28;20229;-68
2021/10/09 13:55:44;;;;;;;24.90;13.97;;;19.80;99.90;;;;;;5038229;28;20545;-68
2021/10/09 13:58:13;;;;;;;21.23;14.70;;;19.70;99.90;;;;;;5037672;28;20228;-68
2021/10/09 14:00:43;;;;;;;18.83;13.43;;;19.60;99.90;;;;;;5033615;28;20718;-68
2021/10/09 14:03:11;;;;;;;18.80;13.23;;;19.60;99.90;;;;;;5034113;28;20694;-68
2021/10/09 14:05:39;;;;;;;17.67;13.03;;;19.60;99.90;;;;;;5042693;28;20205;-68
2021/10/09 14:08:08;;;;;;;18.23;13.00;;;19.60;99.90;;;;;;5036335;28;20285;-69
2021/10/09 14:10:38;;;;;;;19.33;12.30;;;19.60;99.90;;;;;;5036663;28;20210;-68
2021/10/09 14:13:11;;;;;;;26.50;13.13;;;19.60;99.90;;;;;;5057618;28;20594;-69
2021/10/09 14:15:40;;;;;;;19.30;13.20;;;19.80;99.90;;;;;;5038968;28;20656;-68
2021/10/09 14:18:10;;;;;;;19.60;12.40;;;19.90;99.90;;;;;;5036269;28;20193;-69
2021/10/09 14:20:38;;;;;;;17.97;12.60;;;20.00;99.90;;;;;;5034807;28;20196;-69
2021/10/09 14:23:09;;;;;;;21.33;12.83;;;20.00;99.90;;;;;;5036980;28;20192;-69
2021/10/09 14:25:37;;;;;;;18.97;12.37;;;20.00;99.90;;;;;;5039097;28;20284;-68
2021/10/09 14:28:05;;;;;;;16.57;12.23;;;20.10;99.90;;;;;;5035635;28;20198;-69
2021/10/09 14:30:37;;;;;;;21.57;12.60;;;20.20;99.90;;;;;;5030608;28;20209;-69
2021/10/09 14:33:06;;;;;;;17.07;13.13;;;20.40;99.90;;;;;;5028796;28;20204;-69
2021/10/09 14:35:35;;;;;;;20.97;12.53;;;20.30;99.90;;;;;;5065494;28;20202;-68